createdAt,value
2018-04-29T00:00:16.352Z,0
2018-04-29T00:01:16.087Z,0
2018-04-29T00:02:16.088Z,0
2018-04-29T00:03:16.062Z,0
2018-04-29T00:04:15.535Z,0
2018-04-29T00:05:16.049Z,0
2018-04-29T00:06:15.777Z,0
2018-04-29T00:07:16.022Z,0
2018-04-29T00:08:16.235Z,0
2018-04-29T00:09:16.279Z,0
2018-04-29T00:10:15.989Z,0
2018-04-29T00:11:16.444Z,0
2018-04-29T00:12:16.306Z,0
2018-04-29T00:13:15.960Z,0
2018-04-29T00:14:15.946Z,0
2018-04-29T00:15:16.207Z,0
2018-04-29T00:16:16.187Z,0
2018-04-29T00:17:15.921Z,0
2018-04-29T00:18:16.167Z,0
2018-04-29T00:19:16.154Z,0
2018-04-29T00:20:15.887Z,0
2018-04-29T00:21:16.176Z,0
2018-04-29T00:22:16.143Z,0
2018-04-29T00:23:15.857Z,0
2018-04-29T00:24:16.100Z,0
2018-04-29T00:25:15.837Z,0
2018-04-29T00:26:15.842Z,0
2018-04-29T00:27:16.070Z,0
2018-04-29T00:28:16.061Z,0
2018-04-29T00:29:16.274Z,0
2018-04-29T00:30:15.784Z,0
2018-04-29T00:31:15.774Z,0
2018-04-29T00:32:16.043Z,0
2018-04-29T00:33:16.001Z,0
2018-04-29T00:34:15.490Z,0
2018-04-29T00:35:15.696Z,0
2018-04-29T00:36:15.978Z,0
2018-04-29T00:37:15.933Z,0
2018-04-29T00:38:15.719Z,0
2018-04-29T00:39:15.972Z,0
2018-04-29T00:40:15.420Z,0
2018-04-29T00:41:15.668Z,0
2018-04-29T00:42:15.654Z,0
2018-04-29T00:43:15.921Z,0
2018-04-29T00:44:15.640Z,0
2018-04-29T00:45:15.881Z,0
2018-04-29T00:46:15.618Z,0
2018-04-29T00:47:15.604Z,0
2018-04-29T00:48:15.873Z,0
2018-04-29T00:49:15.068Z,0
2018-04-29T00:50:15.844Z,0
2018-04-29T00:51:15.843Z,0
2018-04-29T00:52:15.291Z,0
2018-04-29T00:53:16.071Z,0
2018-04-29T00:54:15.269Z,0
2018-04-29T00:55:15.519Z,0
2018-04-29T00:56:15.523Z,0
2018-04-29T00:57:15.503Z,0
2018-04-29T00:58:15.488Z,0
2018-04-29T00:59:15.843Z,0
2018-04-29T01:00:15.448Z,0
2018-04-29T01:01:15.460Z,0
2018-04-29T01:02:15.698Z,0
2018-04-29T01:03:15.439Z,0
2018-04-29T01:04:15.427Z,0
2018-04-29T01:05:15.432Z,0
2018-04-29T01:06:15.661Z,0
2018-04-29T01:07:15.645Z,0
2018-04-29T01:08:15.637Z,0
2018-04-29T01:09:15.369Z,0
2018-04-29T01:10:15.363Z,0
2018-04-29T01:11:15.845Z,0
2018-04-29T01:12:15.333Z,0
2018-04-29T01:13:15.585Z,0
2018-04-29T01:14:15.317Z,0
2018-04-29T01:15:15.325Z,0
2018-04-29T01:16:15.292Z,0
2018-04-29T01:17:15.548Z,0
2018-04-29T01:18:15.272Z,0
2018-04-29T01:19:15.531Z,0
2018-04-29T01:20:15.482Z,0
2018-04-29T01:21:14.982Z,0
2018-04-29T01:22:15.488Z,0
2018-04-29T01:23:15.760Z,0
2018-04-29T01:24:15.212Z,0
2018-04-29T01:25:15.210Z,0
2018-04-29T01:26:15.445Z,0
2018-04-29T01:27:15.177Z,0
2018-04-29T01:28:15.149Z,0
2018-04-29T01:29:15.147Z,0
2018-04-29T01:30:15.142Z,0
2018-04-29T01:31:15.400Z,0
2018-04-29T01:32:14.862Z,0
2018-04-29T01:33:15.361Z,0
2018-04-29T01:34:15.104Z,0
2018-04-29T01:35:15.094Z,0
2018-04-29T01:36:14.822Z,0
2018-04-29T01:37:15.066Z,0
2018-04-29T01:38:15.310Z,0
2018-04-29T01:39:15.302Z,0
2018-04-29T01:40:15.310Z,0
2018-04-29T01:41:15.280Z,0
2018-04-29T01:42:14.763Z,0
2018-04-29T01:43:14.738Z,0
2018-04-29T01:44:15.248Z,0
2018-04-29T01:45:15.243Z,0
2018-04-29T01:46:14.964Z,0
2018-04-29T01:47:14.708Z,0
2018-04-29T01:48:14.938Z,0
2018-04-29T01:49:14.673Z,0
2018-04-29T01:50:14.663Z,0
2018-04-29T01:51:14.910Z,0
2018-04-29T01:52:14.383Z,0
2018-04-29T01:53:14.634Z,0
2018-04-29T01:54:15.184Z,0
2018-04-29T01:55:15.129Z,0
2018-04-29T01:56:14.858Z,0
2018-04-29T01:57:15.124Z,0
2018-04-29T01:58:14.828Z,0
2018-04-29T01:59:14.561Z,0
2018-04-29T02:00:14.811Z,0
2018-04-29T02:01:15.052Z,0
2018-04-29T02:02:14.527Z,0
2018-04-29T02:03:14.780Z,0
2018-04-29T02:04:15.034Z,0
2018-04-29T02:05:15.010Z,0
2018-04-29T02:06:15.000Z,0
2018-04-29T02:07:14.216Z,0
2018-04-29T02:08:14.978Z,0
2018-04-29T02:09:14.779Z,0
2018-04-29T02:10:14.723Z,0
2018-04-29T02:11:14.433Z,0
2018-04-29T02:12:14.428Z,0
2018-04-29T02:13:14.667Z,0
2018-04-29T02:14:14.695Z,0
2018-04-29T02:15:14.667Z,0
2018-04-29T02:16:14.893Z,0
2018-04-29T02:17:14.650Z,0
2018-04-29T02:18:14.885Z,0
2018-04-29T02:19:14.862Z,0
2018-04-29T02:20:14.326Z,0
2018-04-29T02:21:14.322Z,0
2018-04-29T02:22:14.566Z,0
2018-04-29T02:23:14.562Z,0
2018-04-29T02:24:14.542Z,0
2018-04-29T02:25:15.036Z,0
2018-04-29T02:26:14.535Z,0
2018-04-29T02:27:14.789Z,0
2018-04-29T02:28:14.240Z,0
2018-04-29T02:29:14.747Z,0
2018-04-29T02:30:14.225Z,0
2018-04-29T02:31:14.802Z,0
2018-04-29T02:32:14.727Z,0
2018-04-29T02:33:14.196Z,0
2018-04-29T02:34:14.176Z,0
2018-04-29T02:35:14.422Z,0
2018-04-29T02:36:14.412Z,0
2018-04-29T02:37:14.672Z,0
2018-04-29T02:38:14.386Z,0
2018-04-29T02:39:14.124Z,0
2018-04-29T02:40:14.371Z,0
2018-04-29T02:41:14.625Z,0
2018-04-29T02:42:14.827Z,0
2018-04-29T02:43:14.584Z,0
2018-04-29T02:44:14.325Z,0
2018-04-29T02:45:14.571Z,0
2018-04-29T02:46:14.049Z,0
2018-04-29T02:47:14.552Z,0
2018-04-29T02:48:14.279Z,0
2018-04-29T02:49:14.013Z,0
2018-04-29T02:50:14.256Z,0
2018-04-29T02:51:14.260Z,0
2018-04-29T02:52:14.231Z,0
2018-04-29T02:53:14.496Z,0
2018-04-29T02:54:14.229Z,0
2018-04-29T02:55:14.478Z,0
2018-04-29T02:56:14.454Z,0
2018-04-29T02:57:14.179Z,0
2018-04-29T02:58:14.159Z,0
2018-04-29T02:59:14.412Z,0
2018-04-29T03:00:14.401Z,0
2018-04-29T03:01:14.166Z,0
2018-04-29T03:02:14.147Z,0
2018-04-29T03:03:14.106Z,0
2018-04-29T03:04:13.860Z,0
2018-04-29T03:05:13.824Z,0
2018-04-29T03:06:14.099Z,0
2018-04-29T03:07:14.087Z,0
2018-04-29T03:08:14.308Z,0
2018-04-29T03:09:13.782Z,0
2018-04-29T03:10:14.353Z,0
2018-04-29T03:11:14.293Z,0
2018-04-29T03:12:14.005Z,0
2018-04-29T03:13:14.269Z,0
2018-04-29T03:14:14.247Z,0
2018-04-29T03:15:13.972Z,0
2018-04-29T03:16:13.960Z,0
2018-04-29T03:17:13.946Z,0
2018-04-29T03:18:13.932Z,0
2018-04-29T03:19:13.945Z,4
2018-04-29T03:20:14.198Z,4
2018-04-29T03:21:14.168Z,0
2018-04-29T03:22:13.886Z,4
2018-04-29T03:23:14.144Z,0
2018-04-29T03:24:13.881Z,4
2018-04-29T03:25:13.598Z,4
2018-04-29T03:26:14.124Z,8
2018-04-29T03:27:14.119Z,8
2018-04-29T03:28:14.093Z,8
2018-04-29T03:29:13.817Z,12
2018-04-29T03:30:14.063Z,12
2018-04-29T03:31:13.804Z,16
2018-04-29T03:32:14.042Z,20
2018-04-29T03:33:14.031Z,24
2018-04-29T03:34:14.028Z,28
2018-04-29T03:35:13.512Z,32
2018-04-29T03:36:13.760Z,36
2018-04-29T03:37:13.726Z,44
2018-04-29T03:38:13.716Z,48
2018-04-29T03:39:13.962Z,56
2018-04-29T03:40:13.693Z,64
2018-04-29T03:41:13.427Z,72
2018-04-29T03:42:13.671Z,84
2018-04-29T03:43:13.670Z,92
2018-04-29T03:44:13.902Z,108
2018-04-29T03:45:13.910Z,120
2018-04-29T03:46:13.889Z,136
2018-04-29T03:47:13.369Z,148
2018-04-29T03:48:13.871Z,164
2018-04-29T03:49:13.851Z,180
2018-04-29T03:50:13.587Z,196
2018-04-29T03:51:13.841Z,208
2018-04-29T03:52:13.581Z,216
2018-04-29T03:53:13.549Z,232
2018-04-29T03:54:13.539Z,252
2018-04-29T03:55:13.268Z,268
2018-04-29T03:56:13.944Z,292
2018-04-29T03:57:13.508Z,316
2018-04-29T03:58:13.757Z,340
2018-04-29T03:59:13.491Z,364
2018-04-29T04:00:13.495Z,396
2018-04-29T04:01:13.470Z,432
2018-04-29T04:02:13.714Z,472
2018-04-29T04:03:13.461Z,512
2018-04-29T04:04:13.432Z,560
2018-04-29T04:05:13.683Z,608
2018-04-29T04:06:13.301Z,652
2018-04-29T04:07:13.405Z,696
2018-04-29T04:08:13.390Z,728
2018-04-29T04:09:13.377Z,756
2018-04-29T04:10:13.907Z,784
2018-04-29T04:11:13.370Z,816
2018-04-29T04:12:13.097Z,864
2018-04-29T04:13:13.353Z,924
2018-04-29T04:14:13.578Z,964
2018-04-29T04:15:13.307Z,996
2018-04-29T04:16:13.579Z,1032
2018-04-29T04:17:13.548Z,1064
2018-04-29T04:18:13.291Z,1104
2018-04-29T04:19:13.025Z,1156
2018-04-29T04:20:13.266Z,1220
2018-04-29T04:21:13.000Z,1308
2018-04-29T04:22:13.494Z,1404
2018-04-29T04:23:13.285Z,1516
2018-04-29T04:24:13.215Z,1608
2018-04-29T04:25:13.212Z,1688
2018-04-29T04:26:13.465Z,1792
2018-04-29T04:27:13.449Z,1908
2018-04-29T04:28:12.915Z,2044
2018-04-29T04:29:13.426Z,2172
2018-04-29T04:30:13.151Z,2228
2018-04-29T04:31:13.397Z,2228
2018-04-29T04:32:13.442Z,2176
2018-04-29T04:33:13.446Z,2088
2018-04-29T04:34:13.504Z,2000
2018-04-29T04:35:12.844Z,1940
2018-04-29T04:36:13.387Z,1900
2018-04-29T04:37:13.350Z,1876
2018-04-29T04:38:13.355Z,1872
2018-04-29T04:39:13.310Z,1884
2018-04-29T04:40:13.409Z,1924
2018-04-29T04:41:13.110Z,1976
2018-04-29T04:42:13.023Z,2008
2018-04-29T04:43:12.973Z,2028
2018-04-29T04:44:12.999Z,2048
2018-04-29T04:45:12.733Z,2084
2018-04-29T04:46:13.230Z,2088
2018-04-29T04:47:13.224Z,2088
2018-04-29T04:48:13.233Z,2076
2018-04-29T04:49:13.203Z,2064
2018-04-29T04:50:13.200Z,2096
2018-04-29T04:51:12.919Z,2156
2018-04-29T04:52:12.918Z,2208
2018-04-29T04:53:13.164Z,2256
2018-04-29T04:54:13.143Z,2320
2018-04-29T04:55:13.273Z,2368
2018-04-29T04:56:12.879Z,2408
2018-04-29T04:57:12.599Z,2508
2018-04-29T04:58:13.480Z,2632
2018-04-29T04:59:12.322Z,2760
2018-04-29T05:00:12.565Z,2880
2018-04-29T05:01:13.015Z,3020
2018-04-29T05:02:13.060Z,3156
2018-04-29T05:03:13.072Z,3280
2018-04-29T05:04:12.783Z,3344
2018-04-29T05:05:13.032Z,3424
2018-04-29T05:06:12.758Z,3488
2018-04-29T05:07:13.018Z,3472
2018-04-29T05:08:13.031Z,3448
2018-04-29T05:09:12.470Z,3372
2018-04-29T05:10:12.466Z,3192
2018-04-29T05:11:12.974Z,3052
2018-04-29T05:12:12.964Z,3048
2018-04-29T05:13:12.913Z,3148
2018-04-29T05:14:12.681Z,3276
2018-04-29T05:15:12.673Z,3292
2018-04-29T05:16:12.396Z,3364
2018-04-29T05:17:12.926Z,3448
2018-04-29T05:18:12.382Z,3596
2018-04-29T05:19:12.632Z,3612
2018-04-29T05:20:12.587Z,3608
2018-04-29T05:21:12.869Z,3632
2018-04-29T05:22:12.701Z,3720
2018-04-29T05:23:12.841Z,3808
2018-04-29T05:24:12.575Z,3948
2018-04-29T05:25:12.580Z,4068
2018-04-29T05:26:12.819Z,4156
2018-04-29T05:27:12.444Z,4204
2018-04-29T05:28:12.541Z,4252
2018-04-29T05:29:12.526Z,4272
2018-04-29T05:30:12.997Z,4220
2018-04-29T05:31:12.777Z,4088
2018-04-29T05:32:12.731Z,4180
2018-04-29T05:33:12.822Z,4164
2018-04-29T05:34:12.225Z,4188
2018-04-29T05:35:12.733Z,4300
2018-04-29T05:36:12.459Z,4312
2018-04-29T05:37:12.719Z,4280
2018-04-29T05:38:12.706Z,4276
2018-04-29T05:39:12.790Z,4356
2018-04-29T05:40:12.684Z,4452
2018-04-29T05:41:12.853Z,4608
2018-04-29T05:42:12.407Z,4764
2018-04-29T05:43:12.654Z,4876
2018-04-29T05:44:12.391Z,4956
2018-04-29T05:45:12.122Z,5036
2018-04-29T05:46:12.393Z,5016
2018-04-29T05:47:12.625Z,5100
2018-04-29T05:48:12.097Z,5308
2018-04-29T05:49:12.084Z,5532
2018-04-29T05:50:12.594Z,5584
2018-04-29T05:51:12.328Z,5572
2018-04-29T05:52:12.578Z,5440
2018-04-29T05:53:12.794Z,5260
2018-04-29T05:54:12.041Z,5176
2018-04-29T05:55:12.654Z,5216
2018-04-29T05:56:12.289Z,5196
2018-04-29T05:57:12.271Z,5108
2018-04-29T05:58:12.016Z,5096
2018-04-29T05:59:12.519Z,5176
2018-04-29T06:00:12.008Z,5236
2018-04-29T06:01:12.243Z,5412
2018-04-29T06:02:12.183Z,5548
2018-04-29T06:03:12.247Z,5728
2018-04-29T06:04:12.221Z,5964
2018-04-29T06:05:12.207Z,6348
2018-04-29T06:06:12.217Z,6664
2018-04-29T06:07:12.465Z,6756
2018-04-29T06:08:12.190Z,6620
2018-04-29T06:09:12.442Z,6652
2018-04-29T06:10:12.452Z,6908
2018-04-29T06:11:12.365Z,7080
2018-04-29T06:12:12.416Z,7504
2018-04-29T06:13:12.175Z,7364
2018-04-29T06:14:11.989Z,7148
2018-04-29T06:15:11.878Z,7196
2018-04-29T06:16:12.610Z,7328
2018-04-29T06:17:12.375Z,7424
2018-04-29T06:18:12.370Z,7500
2018-04-29T06:19:12.364Z,7448
2018-04-29T06:20:12.128Z,7172
2018-04-29T06:21:12.095Z,7048
2018-04-29T06:22:12.348Z,7092
2018-04-29T06:23:12.355Z,7080
2018-04-29T06:24:11.807Z,6936
2018-04-29T06:25:11.798Z,6784
2018-04-29T06:26:13.052Z,6648
2018-04-29T06:27:12.310Z,6556
2018-04-29T06:28:12.047Z,6408
2018-04-29T06:29:12.292Z,6328
2018-04-29T06:30:12.026Z,6280
2018-04-29T06:31:12.280Z,6276
2018-04-29T06:32:12.272Z,6272
2018-04-29T06:33:12.264Z,6192
2018-04-29T06:34:12.256Z,6056
2018-04-29T06:35:12.019Z,5940
2018-04-29T06:36:12.248Z,5840
2018-04-29T06:37:11.980Z,5864
2018-04-29T06:38:11.976Z,6064
2018-04-29T06:39:12.439Z,6572
2018-04-29T06:40:12.229Z,7656
2018-04-29T06:41:11.961Z,11164
2018-04-29T06:42:11.958Z,15300
2018-04-29T06:43:12.218Z,18592
2018-04-29T06:44:11.944Z,23648
2018-04-29T06:45:12.214Z,21728
2018-04-29T06:46:11.928Z,20544
2018-04-29T06:47:11.408Z,14512
2018-04-29T06:48:12.174Z,17792
2018-04-29T06:49:11.659Z,27072
2018-04-29T06:50:11.926Z,27296
2018-04-29T06:51:11.642Z,28288
2018-04-29T06:52:11.898Z,30432
2018-04-29T06:53:12.158Z,32288
2018-04-29T06:54:12.148Z,36000
2018-04-29T06:55:11.888Z,32320
2018-04-29T06:56:11.881Z,36704
2018-04-29T06:57:12.175Z,33536
2018-04-29T06:58:11.641Z,32960
2018-04-29T06:59:11.865Z,36576
2018-04-29T07:00:12.132Z,29152
2018-04-29T07:01:11.865Z,27968
2018-04-29T07:02:11.882Z,22752
2018-04-29T07:03:11.861Z,33024
2018-04-29T07:04:11.856Z,40896
2018-04-29T07:05:11.859Z,38048
2018-04-29T07:06:11.854Z,36480
2018-04-29T07:07:11.855Z,33984
2018-04-29T07:08:11.685Z,34560
2018-04-29T07:09:11.878Z,37600
2018-04-29T07:10:11.864Z,36416
2018-04-29T07:11:11.854Z,36416
2018-04-29T07:12:11.594Z,36224
2018-04-29T07:13:11.595Z,30336
2018-04-29T07:14:11.970Z,31136
2018-04-29T07:15:11.862Z,33056
2018-04-29T07:16:12.115Z,31488
2018-04-29T07:17:12.080Z,28992
2018-04-29T07:18:11.851Z,19776
2018-04-29T07:19:11.859Z,11816
2018-04-29T07:20:12.000Z,10216
2018-04-29T07:21:11.617Z,9872
2018-04-29T07:22:11.867Z,9424
2018-04-29T07:23:11.870Z,9076
2018-04-29T07:24:11.864Z,9208
2018-04-29T07:25:11.867Z,8600
2018-04-29T07:26:11.905Z,7900
2018-04-29T07:27:11.883Z,8820
2018-04-29T07:28:11.874Z,7828
2018-04-29T07:29:11.877Z,7360
2018-04-29T07:30:11.885Z,7376
2018-04-29T07:31:12.139Z,7080
2018-04-29T07:32:12.140Z,6564
2018-04-29T07:33:12.088Z,6328
2018-04-29T07:34:12.230Z,6208
2018-04-29T07:35:12.147Z,6124
2018-04-29T07:36:11.633Z,6080
2018-04-29T07:37:11.894Z,6044
2018-04-29T07:38:12.155Z,6048
2018-04-29T07:39:12.187Z,5988
2018-04-29T07:40:12.061Z,5996
2018-04-29T07:41:11.649Z,6100
2018-04-29T07:42:12.159Z,6112
2018-04-29T07:43:11.687Z,6028
2018-04-29T07:44:11.925Z,5944
2018-04-29T07:45:12.166Z,5804
2018-04-29T07:46:12.169Z,5552
2018-04-29T07:47:11.906Z,5580
2018-04-29T07:48:11.917Z,5832
2018-04-29T07:49:12.176Z,5964
2018-04-29T07:50:11.919Z,6028
2018-04-29T07:51:12.179Z,6140
2018-04-29T07:52:12.140Z,6160
2018-04-29T07:53:12.174Z,6008
2018-04-29T07:54:11.925Z,5896
2018-04-29T07:55:11.884Z,5920
2018-04-29T07:56:12.192Z,5876
2018-04-29T07:57:11.926Z,5800
2018-04-29T07:58:12.403Z,5748
2018-04-29T07:59:11.681Z,5720
2018-04-29T08:00:11.406Z,5644
2018-04-29T08:01:12.197Z,5592
2018-04-29T08:02:12.202Z,5404
2018-04-29T08:03:11.659Z,5472
2018-04-29T08:04:12.182Z,5312
2018-04-29T08:05:11.929Z,5152
2018-04-29T08:06:12.200Z,5052
2018-04-29T08:07:12.190Z,5040
2018-04-29T08:08:11.940Z,5180
2018-04-29T08:09:11.669Z,5300
2018-04-29T08:10:12.203Z,5440
2018-04-29T08:11:12.183Z,5536
2018-04-29T08:12:11.866Z,5544
2018-04-29T08:13:12.154Z,5492
2018-04-29T08:14:11.928Z,5592
2018-04-29T08:15:12.178Z,5628
2018-04-29T08:16:11.922Z,5664
2018-04-29T08:17:12.193Z,5580
2018-04-29T08:18:11.663Z,5612
2018-04-29T08:19:11.921Z,5680
2018-04-29T08:20:11.920Z,5676
2018-04-29T08:21:12.182Z,5488
2018-04-29T08:22:12.211Z,5308
2018-04-29T08:23:11.678Z,5372
2018-04-29T08:24:11.918Z,5408
2018-04-29T08:25:11.914Z,5632
2018-04-29T08:26:11.919Z,5720
2018-04-29T08:27:11.915Z,5944
2018-04-29T08:28:12.172Z,5884
2018-04-29T08:29:12.181Z,5696
2018-04-29T08:30:11.800Z,5496
2018-04-29T08:31:12.170Z,5368
2018-04-29T08:32:11.659Z,5288
2018-04-29T08:33:12.170Z,5260
2018-04-29T08:34:12.178Z,5224
2018-04-29T08:35:12.173Z,5208
2018-04-29T08:36:11.802Z,5208
2018-04-29T08:37:11.924Z,5228
2018-04-29T08:38:11.649Z,5252
2018-04-29T08:39:11.936Z,5236
2018-04-29T08:40:12.181Z,5216
2018-04-29T08:41:12.171Z,5260
2018-04-29T08:42:12.173Z,5308
2018-04-29T08:43:12.246Z,5248
2018-04-29T08:44:11.911Z,5184
2018-04-29T08:45:11.931Z,5116
2018-04-29T08:46:11.915Z,5092
2018-04-29T08:47:11.899Z,5124
2018-04-29T08:48:11.641Z,5036
2018-04-29T08:49:12.172Z,5008
2018-04-29T08:50:12.485Z,5068
2018-04-29T08:51:11.901Z,5292
2018-04-29T08:52:12.174Z,5424
2018-04-29T08:53:11.907Z,5448
2018-04-29T08:54:11.895Z,5384
2018-04-29T08:55:12.167Z,5264
2018-04-29T08:56:12.406Z,5172
2018-04-29T08:57:11.897Z,5108
2018-04-29T08:58:12.167Z,5052
2018-04-29T08:59:11.903Z,4936
2018-04-29T09:00:12.168Z,4880
2018-04-29T09:01:12.158Z,4956
2018-04-29T09:02:12.379Z,5048
2018-04-29T09:03:12.161Z,5084
2018-04-29T09:04:11.903Z,5000
2018-04-29T09:05:11.890Z,4876
2018-04-29T09:06:11.634Z,4968
2018-04-29T09:07:11.887Z,5192
2018-04-29T09:08:12.381Z,5060
2018-04-29T09:09:12.171Z,4876
2018-04-29T09:10:12.329Z,4768
2018-04-29T09:11:12.146Z,4596
2018-04-29T09:12:12.157Z,4668
2018-04-29T09:13:12.149Z,4724
2018-04-29T09:14:11.635Z,4812
2018-04-29T09:15:11.889Z,4576
2018-04-29T09:16:11.628Z,4484
2018-04-29T09:17:11.630Z,4640
2018-04-29T09:18:11.887Z,5152
2018-04-29T09:19:12.150Z,5724
2018-04-29T09:20:12.158Z,5836
2018-04-29T09:21:11.899Z,5636
2018-04-29T09:22:12.158Z,5516
2018-04-29T09:23:12.146Z,5292
2018-04-29T09:24:11.881Z,5144
2018-04-29T09:25:12.143Z,4940
2018-04-29T09:26:11.895Z,4632
2018-04-29T09:27:11.630Z,4600
2018-04-29T09:28:12.135Z,4724
2018-04-29T09:29:12.143Z,4884
2018-04-29T09:30:12.164Z,4932
2018-04-29T09:31:12.135Z,4952
2018-04-29T09:32:12.149Z,4948
2018-04-29T09:33:11.881Z,4920
2018-04-29T09:34:12.143Z,4872
2018-04-29T09:35:11.889Z,4824
2018-04-29T09:36:12.140Z,4780
2018-04-29T09:37:12.312Z,4740
2018-04-29T09:38:11.623Z,4708
2018-04-29T09:39:11.880Z,4668
2018-04-29T09:40:11.623Z,4620
2018-04-29T09:41:11.888Z,4584
2018-04-29T09:42:11.628Z,4552
2018-04-29T09:43:11.640Z,4544
2018-04-29T09:44:12.150Z,4516
2018-04-29T09:45:11.883Z,4504
2018-04-29T09:46:12.148Z,4348
2018-04-29T09:47:11.882Z,4448
2018-04-29T09:48:11.886Z,4432
2018-04-29T09:49:11.881Z,4444
2018-04-29T09:50:11.842Z,4440
2018-04-29T09:51:11.635Z,4428
2018-04-29T09:52:12.143Z,4412
2018-04-29T09:53:11.888Z,4392
2018-04-29T09:54:12.185Z,4384
2018-04-29T09:55:12.172Z,4364
2018-04-29T09:56:12.145Z,4368
2018-04-29T09:57:11.897Z,4384
2018-04-29T09:58:11.884Z,4396
2018-04-29T09:59:12.141Z,4392
2018-04-29T10:00:11.878Z,4392
2018-04-29T10:01:12.522Z,4404
2018-04-29T10:02:11.881Z,4436
2018-04-29T10:03:11.885Z,4424
2018-04-29T10:04:11.889Z,4404
2018-04-29T10:05:12.163Z,4428
2018-04-29T10:06:12.143Z,4504
2018-04-29T10:07:12.139Z,4656
2018-04-29T10:08:11.876Z,4880
2018-04-29T10:09:11.875Z,5064
2018-04-29T10:10:12.146Z,5172
2018-04-29T10:11:12.141Z,5192
2018-04-29T10:12:12.137Z,5168
2018-04-29T10:13:11.923Z,5036
2018-04-29T10:14:11.886Z,5068
2018-04-29T10:15:11.886Z,5200
2018-04-29T10:16:12.147Z,5152
2018-04-29T10:17:11.958Z,5016
2018-04-29T10:18:11.884Z,4888
2018-04-29T10:19:11.649Z,4800
2018-04-29T10:20:11.887Z,4684
2018-04-29T10:21:12.147Z,4584
2018-04-29T10:22:11.895Z,4508
2018-04-29T10:23:11.889Z,4464
2018-04-29T10:24:11.902Z,4432
2018-04-29T10:25:11.630Z,4404
2018-04-29T10:26:11.887Z,4380
2018-04-29T10:27:12.156Z,4360
2018-04-29T10:28:12.153Z,4332
2018-04-29T10:29:12.147Z,3968
2018-04-29T10:30:12.182Z,4064
2018-04-29T10:31:11.634Z,3792
2018-04-29T10:32:11.891Z,3804
2018-04-29T10:33:12.485Z,3964
2018-04-29T10:34:12.152Z,4372
2018-04-29T10:35:11.638Z,4400
2018-04-29T10:36:11.892Z,4384
2018-04-29T10:37:12.152Z,4384
2018-04-29T10:38:11.636Z,4496
2018-04-29T10:39:11.894Z,4076
2018-04-29T10:40:11.897Z,4188
2018-04-29T10:41:11.951Z,4136
2018-04-29T10:42:12.158Z,3988
2018-04-29T10:43:12.154Z,3848
2018-04-29T10:44:11.900Z,4088
2018-04-29T10:45:12.170Z,4324
2018-04-29T10:46:11.915Z,4508
2018-04-29T10:47:11.916Z,4492
2018-04-29T10:48:11.917Z,4736
2018-04-29T10:49:12.158Z,4896
2018-04-29T10:50:12.161Z,4984
2018-04-29T10:51:11.638Z,4964
2018-04-29T10:52:11.384Z,4828
2018-04-29T10:53:12.163Z,4572
2018-04-29T10:54:12.150Z,4416
2018-04-29T10:55:12.177Z,4776
2018-04-29T10:56:12.169Z,4960
2018-04-29T10:57:11.905Z,5028
2018-04-29T10:58:11.907Z,5004
2018-04-29T10:59:12.157Z,4904
2018-04-29T11:00:12.158Z,4828
2018-04-29T11:01:11.718Z,4780
2018-04-29T11:02:12.149Z,4636
2018-04-29T11:03:11.647Z,4156
2018-04-29T11:04:11.963Z,4052
2018-04-29T11:05:11.914Z,4372
2018-04-29T11:06:12.593Z,4412
2018-04-29T11:07:12.179Z,4408
2018-04-29T11:08:11.903Z,4576
2018-04-29T11:09:11.648Z,4880
2018-04-29T11:10:11.911Z,5260
2018-04-29T11:11:11.648Z,5468
2018-04-29T11:12:11.652Z,5904
2018-04-29T11:13:11.650Z,6232
2018-04-29T11:14:11.653Z,6128
2018-04-29T11:15:11.918Z,6320
2018-04-29T11:16:12.247Z,6580
2018-04-29T11:17:11.912Z,6844
2018-04-29T11:18:11.928Z,7100
2018-04-29T11:19:12.167Z,7176
2018-04-29T11:20:12.172Z,6968
2018-04-29T11:21:11.917Z,7252
2018-04-29T11:22:12.383Z,7400
2018-04-29T11:23:11.921Z,7244
2018-04-29T11:24:11.924Z,7052
2018-04-29T11:25:11.924Z,7452
2018-04-29T11:26:12.185Z,7604
2018-04-29T11:27:11.670Z,7044
2018-04-29T11:28:11.689Z,6164
2018-04-29T11:29:12.192Z,5532
2018-04-29T11:30:11.935Z,5160
2018-04-29T11:31:11.674Z,4916
2018-04-29T11:32:11.924Z,4796
2018-04-29T11:33:11.933Z,4732
2018-04-29T11:34:12.193Z,4644
2018-04-29T11:35:12.193Z,4600
2018-04-29T11:36:11.946Z,4536
2018-04-29T11:37:12.195Z,4472
2018-04-29T11:38:11.684Z,4404
2018-04-29T11:39:12.224Z,4348
2018-04-29T11:40:11.979Z,4320
2018-04-29T11:41:11.946Z,4324
2018-04-29T11:42:11.689Z,4344
2018-04-29T11:43:11.951Z,4384
2018-04-29T11:44:11.949Z,4404
2018-04-29T11:45:12.207Z,4380
2018-04-29T11:46:12.232Z,4328
2018-04-29T11:47:12.217Z,4276
2018-04-29T11:48:11.956Z,4208
2018-04-29T11:49:11.702Z,4152
2018-04-29T11:50:12.233Z,4112
2018-04-29T11:51:12.002Z,4076
2018-04-29T11:52:12.248Z,4052
2018-04-29T11:53:12.229Z,4048
2018-04-29T11:54:11.997Z,4080
2018-04-29T11:55:12.233Z,4112
2018-04-29T11:56:12.239Z,4028
2018-04-29T11:57:12.228Z,4052
2018-04-29T11:58:11.460Z,4108
2018-04-29T11:59:12.253Z,4180
2018-04-29T12:00:11.984Z,4252
2018-04-29T12:01:12.251Z,4316
2018-04-29T12:02:12.333Z,4356
2018-04-29T12:03:12.007Z,4424
2018-04-29T12:04:11.800Z,4492
2018-04-29T12:05:12.256Z,4508
2018-04-29T12:06:12.247Z,4524
2018-04-29T12:07:12.000Z,4508
2018-04-29T12:08:11.999Z,4648
2018-04-29T12:09:12.276Z,4748
2018-04-29T12:10:11.487Z,4832
2018-04-29T12:11:12.002Z,4908
2018-04-29T12:12:11.839Z,4488
2018-04-29T12:13:12.017Z,4636
2018-04-29T12:14:12.038Z,4616
2018-04-29T12:15:11.753Z,4216
2018-04-29T12:16:12.018Z,3928
2018-04-29T12:17:12.023Z,3756
2018-04-29T12:18:12.038Z,4076
2018-04-29T12:19:12.301Z,3944
2018-04-29T12:20:11.784Z,4500
2018-04-29T12:21:12.037Z,5100
2018-04-29T12:22:12.379Z,6056
2018-04-29T12:23:12.035Z,6220
2018-04-29T12:24:12.285Z,5816
2018-04-29T12:25:11.774Z,5288
2018-04-29T12:26:12.298Z,4808
2018-04-29T12:27:12.297Z,4268
2018-04-29T12:28:12.305Z,4092
2018-04-29T12:29:12.060Z,4132
2018-04-29T12:30:12.365Z,3720
2018-04-29T12:31:12.502Z,3820
2018-04-29T12:32:12.046Z,4724
2018-04-29T12:33:12.326Z,5832
2018-04-29T12:34:11.788Z,6504
2018-04-29T12:35:12.047Z,5824
2018-04-29T12:36:12.541Z,6244
2018-04-29T12:37:12.312Z,6756
2018-04-29T12:38:12.516Z,6288
2018-04-29T12:39:12.062Z,5968
2018-04-29T12:40:12.054Z,6408
2018-04-29T12:41:12.060Z,5996
2018-04-29T12:42:11.797Z,5768
2018-04-29T12:43:12.061Z,6008
2018-04-29T12:44:12.542Z,6116
2018-04-29T12:45:12.328Z,6144
2018-04-29T12:46:12.072Z,6348
2018-04-29T12:47:12.336Z,6708
2018-04-29T12:48:12.053Z,7128
2018-04-29T12:49:12.342Z,7424
2018-04-29T12:50:12.073Z,7792
2018-04-29T12:51:12.330Z,8536
2018-04-29T12:52:12.664Z,9060
2018-04-29T12:53:12.078Z,9400
2018-04-29T12:54:12.298Z,9060
2018-04-29T12:55:12.085Z,8704
2018-04-29T12:56:11.831Z,8276
2018-04-29T12:57:12.093Z,8212
2018-04-29T12:58:12.384Z,9556
2018-04-29T12:59:12.352Z,10408
2018-04-29T13:00:11.901Z,10372
2018-04-29T13:01:12.354Z,10272
2018-04-29T13:02:12.096Z,10356
2018-04-29T13:03:12.360Z,10060
2018-04-29T13:04:12.098Z,9480
2018-04-29T13:05:11.852Z,9176
2018-04-29T13:06:12.110Z,9304
2018-04-29T13:07:12.108Z,9548
2018-04-29T13:08:12.107Z,9540
2018-04-29T13:09:12.363Z,9472
2018-04-29T13:10:12.369Z,10100
2018-04-29T13:11:12.371Z,10408
2018-04-29T13:12:12.377Z,10936
2018-04-29T13:13:12.374Z,11028
2018-04-29T13:14:12.383Z,11020
2018-04-29T13:15:12.129Z,10428
2018-04-29T13:16:12.353Z,10204
2018-04-29T13:17:12.475Z,10700
2018-04-29T13:18:12.148Z,10780
2018-04-29T13:19:11.892Z,11152
2018-04-29T13:20:12.155Z,10760
2018-04-29T13:21:12.141Z,9384
2018-04-29T13:22:12.149Z,8476
2018-04-29T13:23:12.370Z,8328
2018-04-29T13:24:12.404Z,8048
2018-04-29T13:25:12.377Z,8140
2018-04-29T13:26:11.902Z,8428
2018-04-29T13:27:12.161Z,8636
2018-04-29T13:28:12.157Z,9588
2018-04-29T13:29:12.176Z,10552
2018-04-29T13:30:12.175Z,10912
2018-04-29T13:31:12.177Z,9924
2018-04-29T13:32:12.658Z,9428
2018-04-29T13:33:12.652Z,9632
2018-04-29T13:34:12.180Z,9552
2018-04-29T13:35:12.439Z,9220
2018-04-29T13:36:11.934Z,8368
2018-04-29T13:37:12.148Z,7404
2018-04-29T13:38:12.182Z,6820
2018-04-29T13:39:12.190Z,6320